British Envoy — MNAN4 — position and weather

sailwx.info

Track history (hours):
 
Tides and Currents Weather Stations Pressure Air Temp Water Temp Dewpoint Dewpoint Depression Visibility Wind Speed Wind Dir Waves Ship Positions

British Envoy

Last reported at 2016-Dec-06 12:00 UTC. Time now 2016-Dec-06 21:52 UTC.
Position S 30°48' E 030°42'.

Length 184.2 m; beam 27.4 m; draft 11.3 m.

Type: Tanker. MMSI: 235011280.

Wind from 050 at 32 knots

Barometer 1011.4 mb
Air temperature 25.5 ° C
Visibility: greater than 10.8 NM
Dewpoint 19.8 ° C

Date/timePositionNaut miles runAvg speedWind from/ knotsBaromVisibWave heightAir tempDewpointWater temp
2016-Dec-06 12:00S 30°48' E 030°42'3215.8 050 / 321011.410.8 25.519.8
2016-Dec-06 10:00S 30°24' E 031°06'3 7.5 050 / 301013.0 5.4 24.019.4
2016-Dec-06 09:34S 30°24' E 031°10'1615.7
2016-Dec-06 08:34S 30°12' E 031°21'1615.6
2016-Dec-06 07:34S 29°59' E 031°32'1515.3
2016-Dec-06 06:34S 29°47' E 031°42'1515.1
2016-Dec-06 05:33S 29°35' E 031°53'610.9
2016-Dec-06 05:00S 29°30' E 031°48'47 1.5 050 / 101018.510.8 23.518.0
2016-Dec-04 22:00S 28°48' E 032°12'0 0.0 220 / 221017.2 5.4 24.020.2
2016-Dec-04 12:00S 28°48' E 032°12'0 0.0 220 / 301012.9 5.4 24.020.2
2016-Dec-04 10:00S 28°48' E 032°12'20 4.5 210 / 221012.6 2.2 24.520.7
2016-Dec-04 05:33S 29°08' E 032°08'14 5.3
2016-Dec-04 03:00S 28°54' E 032°06'815.3 040 / 351007.927.0 23.019.9
2016-Dec-04 02:26S 29°02' E 032°10'4 4.0
2016-Dec-04 01:33S 29°05' E 032°08'6 5.9
2016-Dec-04 00:31S 28°59' E 032°11'1 0.7
2016-Dec-03 22:33S 29°01' E 032°11'19 3.2
2016-Dec-03 16:30S 29°17' E 031°59'8 8.1
2016-Dec-03 15:33S 29°22' E 031°53'1010.2
2016-Dec-03 14:33S 29°28' E 031°43'711.6
2016-Dec-03 14:00S 29°30' E 031°36'612.7 050 / 351008.4 5.4 25.521.0
2016-Dec-03 13:33S 29°35' E 031°33'1111.5
2016-Dec-03 12:33S 29°42' E 031°23'1211.8
2016-Dec-03 11:33S 29°50' E 031°13'10 9.5
2016-Dec-03 10:33S 29°53' E 031°02'0 0.3
2016-Dec-03 09:32S 29°53' E 031°02'0 0.0
2016-Dec-03 08:32S 29°53' E 031°02'0 0.0
2016-Dec-03 07:32S 29°53' E 031°02'0 0.0
2016-Dec-03 06:32S 29°53' E 031°02'0 0.0
2016-Dec-03 05:32S 29°53' E 031°02'0 0.0
2016-Dec-03 04:32S 29°53' E 031°02'0 0.0
2016-Dec-03 03:32S 29°53' E 031°02'0 0.0
2016-Dec-03 02:32S 29°53' E 031°02'0 0.0
2016-Dec-03 01:32S 29°53' E 031°02'0 0.0
2016-Dec-03 00:32S 29°53' E 031°02'0 0.0
2016-Dec-02 23:32S 29°53' E 031°02'0 0.0
2016-Dec-02 22:32S 29°53' E 031°02'0 0.0
2016-Dec-02 21:32S 29°53' E 031°02'0 0.0
2016-Dec-02 20:32S 29°53' E 031°02'0 0.0
2016-Dec-02 19:32S 29°53' E 031°02'0 0.0
2016-Dec-02 18:32S 29°53' E 031°02'0 0.0
2016-Dec-02 17:32S 29°53' E 031°02'0 0.0
2016-Dec-02 16:32S 29°53' E 031°02'0 0.0
2016-Dec-02 15:32S 29°53' E 031°02'0 0.0
2016-Dec-02 14:32S 29°53' E 031°02'0 0.0
2016-Dec-02 13:32S 29°53' E 031°02'0 0.0
2016-Dec-02 12:32S 29°53' E 031°02'0 0.0
2016-Dec-02 11:32S 29°53' E 031°02'0 0.0
2016-Dec-02 10:32S 29°53' E 031°02'0 0.0
2016-Dec-02 09:32S 29°53' E 031°02'0 0.0
2016-Dec-02 08:32S 29°53' E 031°02'0 0.0
2016-Dec-02 07:32S 29°53' E 031°02'0 0.0
2016-Dec-02 06:32S 29°53' E 031°02'0 0.0
2016-Dec-02 05:32S 29°53' E 031°02'0 0.0
2016-Dec-02 04:32S 29°53' E 031°02'0 0.0
2016-Dec-02 03:32S 29°53' E 031°02'0 0.0
2016-Dec-02 02:32S 29°53' E 031°02'0 0.0
2016-Dec-02 01:32S 29°53' E 031°02'0 0.0
2016-Dec-02 00:32S 29°53' E 031°02'0 0.0
2016-Dec-01 23:32S 29°53' E 031°02'0 0.0
2016-Dec-01 22:32S 29°53' E 031°02'0 0.0
2016-Dec-01 21:32S 29°53' E 031°02'0 0.0
2016-Dec-01 20:32S 29°53' E 031°02'0 0.0
2016-Dec-01 19:32S 29°53' E 031°02'0 0.0
2016-Dec-01 18:32S 29°53' E 031°02'0 0.4
2016-Dec-01 17:32S 29°53' E 031°03'0 0.1
2016-Dec-01 16:32S 29°53' E 031°03'0 0.0
2016-Dec-01 15:32S 29°53' E 031°03'0 0.0
2016-Dec-01 14:32S 29°53' E 031°03'0 0.0
2016-Dec-01 13:32S 29°53' E 031°03'0 0.0
2016-Dec-01 12:32S 29°53' E 031°03'0 0.0
2016-Dec-01 11:32S 29°53' E 031°03'0 0.0
2016-Dec-01 10:32S 29°53' E 031°03'0 0.0
2016-Dec-01 09:32S 29°53' E 031°03'0 0.0
2016-Dec-01 08:32S 29°53' E 031°03'0 0.0
2016-Dec-01 07:32S 29°53' E 031°03'0 0.0
2016-Dec-01 06:32S 29°53' E 031°03'0 0.0
2016-Dec-01 05:32S 29°53' E 031°03'0 0.0
2016-Dec-01 04:32S 29°53' E 031°03'0 0.0
2016-Dec-01 03:29S 29°53' E 031°03'0 0.0
2016-Dec-01 02:32S 29°53' E 031°03'0 0.0
2016-Dec-01 01:32S 29°53' E 031°03'0 0.0
2016-Dec-01 00:32S 29°53' E 031°03'0 0.0
2016-Nov-30 23:32S 29°53' E 031°03'0 0.0
2016-Nov-30 22:32S 29°53' E 031°03'0 0.0
2016-Nov-30 21:32S 29°53' E 031°03'0 0.0
2016-Nov-30 20:32S 29°53' E 031°03'0 0.0
2016-Nov-30 19:32S 29°53' E 031°03'0 0.0
2016-Nov-30 18:32S 29°53' E 031°03'0 0.0
2016-Nov-30 17:32S 29°53' E 031°03'0 0.0
2016-Nov-30 16:32S 29°53' E 031°03'0 0.0
2016-Nov-30 15:32S 29°53' E 031°03'0 0.0
2016-Nov-30 14:32S 29°53' E 031°03'0 0.0
2016-Nov-30 13:32S 29°53' E 031°03'0 0.0
2016-Nov-30 12:32S 29°53' E 031°03'0 0.0
2016-Nov-30 11:32S 29°53' E 031°03'0 0.0
2016-Nov-30 10:32S 29°53' E 031°03'0 0.0
2016-Nov-30 09:32S 29°53' E 031°03'0 0.0
2016-Nov-30 08:32S 29°53' E 031°03'0 0.0
2016-Nov-30 07:32S 29°53' E 031°03'0 0.1
2016-Nov-30 06:33S 29°53' E 031°03'5 5.3
2016-Nov-30 05:33S 29°49' E 031°06'1 1.2
2016-Nov-30 04:33S 29°49' E 031°08'5 5.4
2016-Nov-30 03:33S 29°51' E 031°13'7 7.5
2016-Nov-30 02:33S 29°59' E 031°13'1312.5
2016-Nov-30 01:33S 30°10' E 031°08'1010.1
2016-Nov-30 00:33S 30°20' E 031°04'5 9.6
2016-Nov-30 00:00S 30°24' E 031°00'3 1.6 060 / 121015.6 5.4 22.018.9
2016-Nov-29 22:18S 30°24' E 031°03'810.4
2016-Nov-29 21:33S 30°31' E 030°59'4613.0
2016-Nov-29 18:00S 31°06' E 030°24'47 9.5 030 / 101017.0 5.4 23.016.5
2016-Nov-29 13:00S 31°42' E 029°48'5116.9 090 / 71016.210.8 22.015.3
2016-Nov-29 10:00S 32°18' E 029°06'28611.9 090 / 81017.8 5.4 22.015.325.0
2016-Nov-28 10:00S 34°36' E 024°06'29511.9 270 / 201015.0 5.4 22.018.9
2016-Nov-27 09:10S 34°00' E 018°11'5 6.6
2016-Nov-27 08:28S 33°57' E 018°15'1011.2
2016-Nov-27 07:33S 33°52' E 018°26'3 2.9
2016-Nov-27 06:29S 33°55' E 018°27'0 0.0
2016-Nov-27 04:29S 33°55' E 018°27'0 0.0
2016-Nov-27 03:17S 33°55' E 018°27'0 0.0
2016-Nov-27 02:17S 33°55' E 018°27'0 0.0
2016-Nov-27 01:20S 33°55' E 018°27'0 0.0
2016-Nov-27 00:29S 33°55' E 018°27'0 0.0
2016-Nov-26 23:29S 33°55' E 018°27'0 0.0
2016-Nov-26 21:29S 33°55' E 018°27'0 0.0
2016-Nov-26 20:11S 33°55' E 018°27'0 0.0
2016-Nov-26 19:32S 33°55' E 018°27'0 0.0
2016-Nov-26 18:29S 33°55' E 018°27'0 0.0
2016-Nov-26 17:29S 33°55' E 018°27'0 0.0
2016-Nov-26 16:23S 33°55' E 018°27'0 0.0
2016-Nov-26 15:17S 33°55' E 018°27'  
Track history (hours):
 
Tides and Currents Weather Stations Pressure Air Temp Water Temp Dewpoint Dewpoint Depression Visibility Wind Speed Wind Dir Waves Ship Positions

British Envoy

Last reported at 2016-Dec-06 12:00 UTC. Time now 2016-Dec-06 21:52 UTC.
Position S 30°48' E 030°42'.

Length 184.2 m; beam 27.4 m; draft 11.3 m.

Type: Tanker. MMSI: 235011280.

Wind from 050 at 32 knots

Barometer 1011.4 mb
Air temperature 25.5 ° C
Visibility: greater than 10.8 NM
Dewpoint 19.8 ° C

Date/timePositionNaut miles runAvg speedWind from/ knotsBaromVisibWave heightAir tempDewpointWater temp
2016-Dec-06 12:00S 30°48' E 030°42'3215.8 050 / 321011.410.8 25.519.8
2016-Dec-06 10:00S 30°24' E 031°06'3 7.5 050 / 301013.0 5.4 24.019.4
2016-Dec-06 09:34S 30°24' E 031°10'1615.7
2016-Dec-06 08:34S 30°12' E 031°21'1615.6
2016-Dec-06 07:34S 29°59' E 031°32'1515.3
2016-Dec-06 06:34S 29°47' E 031°42'1515.1
2016-Dec-06 05:33S 29°35' E 031°53'610.9
2016-Dec-06 05:00S 29°30' E 031°48'47 1.5 050 / 101018.510.8 23.518.0
2016-Dec-04 22:00S 28°48' E 032°12'0 0.0 220 / 221017.2 5.4 24.020.2
2016-Dec-04 12:00S 28°48' E 032°12'0 0.0 220 / 301012.9 5.4 24.020.2
2016-Dec-04 10:00S 28°48' E 032°12'20 4.5 210 / 221012.6 2.2 24.520.7
2016-Dec-04 05:33S 29°08' E 032°08'14 5.3
2016-Dec-04 03:00S 28°54' E 032°06'815.3 040 / 351007.927.0 23.019.9
2016-Dec-04 02:26S 29°02' E 032°10'4 4.0
2016-Dec-04 01:33S 29°05' E 032°08'6 5.9
2016-Dec-04 00:31S 28°59' E 032°11'1 0.7
2016-Dec-03 22:33S 29°01' E 032°11'19 3.2
2016-Dec-03 16:30S 29°17' E 031°59'8 8.1
2016-Dec-03 15:33S 29°22' E 031°53'1010.2
2016-Dec-03 14:33S 29°28' E 031°43'711.6
2016-Dec-03 14:00S 29°30' E 031°36'612.7 050 / 351008.4 5.4 25.521.0
2016-Dec-03 13:33S 29°35' E 031°33'1111.5
2016-Dec-03 12:33S 29°42' E 031°23'1211.8
2016-Dec-03 11:33S 29°50' E 031°13'10 9.5
2016-Dec-03 10:33S 29°53' E 031°02'0 0.3
2016-Dec-03 09:32S 29°53' E 031°02'0 0.0
2016-Dec-03 08:32S 29°53' E 031°02'0 0.0
2016-Dec-03 07:32S 29°53' E 031°02'0 0.0
2016-Dec-03 06:32S 29°53' E 031°02'0 0.0
2016-Dec-03 05:32S 29°53' E 031°02'0 0.0
2016-Dec-03 04:32S 29°53' E 031°02'0 0.0
2016-Dec-03 03:32S 29°53' E 031°02'0 0.0
2016-Dec-03 02:32S 29°53' E 031°02'0 0.0
2016-Dec-03 01:32S 29°53' E 031°02'0 0.0
2016-Dec-03 00:32S 29°53' E 031°02'0 0.0
2016-Dec-02 23:32S 29°53' E 031°02'0 0.0
2016-Dec-02 22:32S 29°53' E 031°02'0 0.0
2016-Dec-02 21:32S 29°53' E 031°02'0 0.0
2016-Dec-02 20:32S 29°53' E 031°02'0 0.0
2016-Dec-02 19:32S 29°53' E 031°02'0 0.0
2016-Dec-02 18:32S 29°53' E 031°02'0 0.0
2016-Dec-02 17:32S 29°53' E 031°02'0 0.0
2016-Dec-02 16:32S 29°53' E 031°02'0 0.0
2016-Dec-02 15:32S 29°53' E 031°02'0 0.0
2016-Dec-02 14:32S 29°53' E 031°02'0 0.0
2016-Dec-02 13:32S 29°53' E 031°02'0 0.0
2016-Dec-02 12:32S 29°53' E 031°02'0 0.0
2016-Dec-02 11:32S 29°53' E 031°02'0 0.0
2016-Dec-02 10:32S 29°53' E 031°02'0 0.0
2016-Dec-02 09:32S 29°53' E 031°02'0 0.0
2016-Dec-02 08:32S 29°53' E 031°02'0 0.0
2016-Dec-02 07:32S 29°53' E 031°02'0 0.0
2016-Dec-02 06:32S 29°53' E 031°02'0 0.0
2016-Dec-02 05:32S 29°53' E 031°02'0 0.0
2016-Dec-02 04:32S 29°53' E 031°02'0 0.0
2016-Dec-02 03:32S 29°53' E 031°02'0 0.0
2016-Dec-02 02:32S 29°53' E 031°02'0 0.0
2016-Dec-02 01:32S 29°53' E 031°02'0 0.0
2016-Dec-02 00:32S 29°53' E 031°02'0 0.0
2016-Dec-01 23:32S 29°53' E 031°02'0 0.0
2016-Dec-01 22:32S 29°53' E 031°02'0 0.0
2016-Dec-01 21:32S 29°53' E 031°02'0 0.0
2016-Dec-01 20:32S 29°53' E 031°02'0 0.0
2016-Dec-01 19:32S 29°53' E 031°02'0 0.0
2016-Dec-01 18:32S 29°53' E 031°02'0 0.4
2016-Dec-01 17:32S 29°53' E 031°03'0 0.1
2016-Dec-01 16:32S 29°53' E 031°03'0 0.0
2016-Dec-01 15:32S 29°53' E 031°03'0 0.0
2016-Dec-01 14:32S 29°53' E 031°03'0 0.0
2016-Dec-01 13:32S 29°53' E 031°03'0 0.0
2016-Dec-01 12:32S 29°53' E 031°03'0 0.0
2016-Dec-01 11:32S 29°53' E 031°03'0 0.0
2016-Dec-01 10:32S 29°53' E 031°03'0 0.0
2016-Dec-01 09:32S 29°53' E 031°03'0 0.0
2016-Dec-01 08:32S 29°53' E 031°03'0 0.0
2016-Dec-01 07:32S 29°53' E 031°03'0 0.0
2016-Dec-01 06:32S 29°53' E 031°03'0 0.0
2016-Dec-01 05:32S 29°53' E 031°03'0 0.0
2016-Dec-01 04:32S 29°53' E 031°03'0 0.0
2016-Dec-01 03:29S 29°53' E 031°03'0 0.0
2016-Dec-01 02:32S 29°53' E 031°03'0 0.0
2016-Dec-01 01:32S 29°53' E 031°03'0 0.0
2016-Dec-01 00:32S 29°53' E 031°03'0 0.0
2016-Nov-30 23:32S 29°53' E 031°03'0 0.0
2016-Nov-30 22:32S 29°53' E 031°03'0 0.0
2016-Nov-30 21:32S 29°53' E 031°03'0 0.0
2016-Nov-30 20:32S 29°53' E 031°03'0 0.0
2016-Nov-30 19:32S 29°53' E 031°03'0 0.0
2016-Nov-30 18:32S 29°53' E 031°03'0 0.0
2016-Nov-30 17:32S 29°53' E 031°03'0 0.0
2016-Nov-30 16:32S 29°53' E 031°03'0 0.0
2016-Nov-30 15:32S 29°53' E 031°03'0 0.0
2016-Nov-30 14:32S 29°53' E 031°03'0 0.0
2016-Nov-30 13:32S 29°53' E 031°03'0 0.0
2016-Nov-30 12:32S 29°53' E 031°03'0 0.0
2016-Nov-30 11:32S 29°53' E 031°03'0 0.0
2016-Nov-30 10:32S 29°53' E 031°03'0 0.0
2016-Nov-30 09:32S 29°53' E 031°03'0 0.0
2016-Nov-30 08:32S 29°53' E 031°03'0 0.0
2016-Nov-30 07:32S 29°53' E 031°03'0 0.1
2016-Nov-30 06:33S 29°53' E 031°03'5 5.3
2016-Nov-30 05:33S 29°49' E 031°06'1 1.2
2016-Nov-30 04:33S 29°49' E 031°08'5 5.4
2016-Nov-30 03:33S 29°51' E 031°13'7 7.5
2016-Nov-30 02:33S 29°59' E 031°13'1312.5
2016-Nov-30 01:33S 30°10' E 031°08'1010.1
2016-Nov-30 00:33S 30°20' E 031°04'5 9.6
2016-Nov-30 00:00S 30°24' E 031°00'3 1.6 060 / 121015.6 5.4 22.018.9
2016-Nov-29 22:18S 30°24' E 031°03'810.4
2016-Nov-29 21:33S 30°31' E 030°59'4613.0
2016-Nov-29 18:00S 31°06' E 030°24'47 9.5 030 / 101017.0 5.4 23.016.5
2016-Nov-29 13:00S 31°42' E 029°48'5116.9 090 / 71016.210.8 22.015.3
2016-Nov-29 10:00S 32°18' E 029°06'28611.9 090 / 81017.8 5.4 22.015.325.0
2016-Nov-28 10:00S 34°36' E 024°06'29511.9 270 / 201015.0 5.4 22.018.9
2016-Nov-27 09:10S 34°00' E 018°11'5 6.6
2016-Nov-27 08:28S 33°57' E 018°15'1011.2
2016-Nov-27 07:33S 33°52' E 018°26'3 2.9
2016-Nov-27 06:29S 33°55' E 018°27'0 0.0
2016-Nov-27 04:29S 33°55' E 018°27'0 0.0
2016-Nov-27 03:17S 33°55' E 018°27'0 0.0
2016-Nov-27 02:17S 33°55' E 018°27'0 0.0
2016-Nov-27 01:20S 33°55' E 018°27'0 0.0
2016-Nov-27 00:29S 33°55' E 018°27'0 0.0
2016-Nov-26 23:29S 33°55' E 018°27'0 0.0
2016-Nov-26 21:29S 33°55' E 018°27'0 0.0
2016-Nov-26 20:11S 33°55' E 018°27'0 0.0
2016-Nov-26 19:32S 33°55' E 018°27'0 0.0
2016-Nov-26 18:29S 33°55' E 018°27'0 0.0
2016-Nov-26 17:29S 33°55' E 018°27'0 0.0
2016-Nov-26 16:23S 33°55' E 018°27'0 0.0
2016-Nov-26 15:17S 33°55' E 018°27'  

Dump ship's entire track history